Time;durP1;ratioP1;P1;durP2;ratioP2;P2;SDS_P1;SDS_P2;PMS_P1;PMS_P2;Temp;Humidity;BMP_temperature;BMP_pressure;BME280_temperature;BME280_humidity;BME280_pressure;Samples;Min_cycle;Max_cycle;Signal;HPM_P1;HPM_P2
2022/11/14 00:01:57;;;;;;;7.88;1.73;;;;;;;24.91;80.26;99433.84;7394810;19;20023;-57
2022/11/14 00:04:46;;;;;;;8.48;3.08;;;;;;;24.94;79.29;99424.13;7395833;19;20011;-58
2022/11/14 00:07:31;;;;;;;8.32;3.25;;;;;;;25.29;78.36;99428.50;7391661;19;20336;-57
2022/11/14 00:10:16;;;;;;;5.25;1.77;;;;;;;25.01;78.46;99431.84;7392211;19;20443;-57
2022/11/14 00:13:01;;;;;;;17.05;2.35;;;;;;;24.79;78.44;99421.44;7393181;19;20014;-58
2022/11/14 00:15:53;;;;;;;2.67;1.23;;;;;;;25.75;76.19;99436.47;7392901;19;20014;-57
2022/11/14 00:18:37;;;;;;;8.07;1.98;;;;;;;25.24;76.85;99428.72;7391247;19;20014;-57
2022/11/14 00:21:22;;;;;;;4.82;1.67;;;;;;;25.62;75.91;99426.16;7391784;19;20010;-57
2022/11/14 00:24:06;;;;;;;11.18;2.75;;;;;;;25.03;76.99;99429.16;7392415;19;20014;-57
2022/11/14 00:26:51;;;;;;;13.20;2.13;;;;;;;24.35;79.35;99423.31;7392106;19;20455;-57
2022/11/14 00:29:36;;;;;;;8.88;3.13;;;;;;;24.71;78.10;99420.75;7391125;19;20010;-57
2022/11/14 00:32:21;;;;;;;3.55;1.63;;;;;;;24.87;78.27;99416.41;7396023;19;20018;-57
2022/11/14 00:35:08;;;;;;;12.98;2.67;;;;;;;25.11;77.67;99418.44;7390799;19;20016;-57
2022/11/14 00:37:52;;;;;;;2.95;0.70;;;;;;;25.42;77.13;99419.63;7390602;19;20014;-57
2022/11/14 00:40:37;;;;;;;15.70;2.05;;;;;;;25.48;76.92;99411.53;7389792;19;20018;-57
2022/11/14 00:43:22;;;;;;;3.53;1.73;;;;;;;25.04;77.71;99409.94;7390293;19;20022;-57
2022/11/14 00:46:06;;;;;;;11.40;2.72;;;;;;;24.02;81.02;99409.13;7395309;19;20010;-57
2022/11/14 00:48:51;;;;;;;5.85;2.15;;;;;;;25.44;77.88;99396.19;7391011;19;20014;-57
2022/11/14 00:51:36;;;;;;;9.43;1.77;;;;;;;25.74;76.29;99410.03;7394043;19;20467;-57
2022/11/14 00:54:20;;;;;;;8.02;3.28;;;;;;;26.03;75.26;99396.66;7390609;19;20018;-57
2022/11/14 00:57:05;;;;;;;6.50;2.20;;;;;;;25.81;75.47;99399.88;7390950;19;20014;-57
2022/11/14 00:59:50;;;;;;;3.13;1.60;;;;;;;26.11;74.58;99391.63;7390049;19;20434;-57
2022/11/14 01:02:34;;;;;;;7.03;2.67;;;;;;;25.76;74.98;99395.94;7395330;19;20329;-56
2022/11/14 01:05:19;;;;;;;4.95;1.67;;;;;;;25.43;75.56;99392.59;7391233;19;20007;-57
2022/11/14 01:08:04;;;;;;;5.05;2.00;;;;;;;18.52;96.06;99401.84;7390852;19;20022;-57
2022/11/14 01:10:50;;;;;;;4.05;1.55;;;;;;;13.89;100.00;99393.09;7391578;19;20023;-57
2022/11/14 01:13:35;;;;;;;3.70;2.20;;;;;;;12.54;100.00;99391.72;7390097;19;20010;-57
2022/11/14 01:16:19;;;;;;;4.47;1.95;;;;;;;11.77;100.00;99395.53;7389369;19;20011;-57
2022/11/14 01:19:04;;;;;;;13.90;2.13;;;;;;;11.10;100.00;99385.75;7388210;19;20019;-57
2022/11/14 01:21:49;;;;;;;5.40;1.73;;;;;;;11.03;100.00;99382.59;7393264;19;20039;-57
2022/11/14 01:24:34;;;;;;;3.72;1.70;;;;;;;12.30;100.00;99375.31;7390011;19;20018;-57
2022/11/14 01:27:18;;;;;;;10.30;2.03;;;;;;;13.37;100.00;99364.06;7388478;19;20014;-57
2022/11/14 01:30:04;;;;;;;3.50;2.35;;;;;;;13.74;100.00;99367.41;7388815;19;20028;-57
2022/11/14 01:32:48;;;;;;;6.82;2.55;;;;;;;17.72;100.00;99368.38;7394550;19;20011;-58
2022/11/14 01:35:34;;;;;;;4.28;1.58;;;;;;;19.40;100.00;99360.53;7389096;19;20516;-57
2022/11/14 01:38:19;;;;;;;9.60;1.30;;;;;;;20.33;100.00;99353.84;7389616;19;20019;-57
2022/11/14 01:41:05;;;;;;;9.65;2.92;;;;;;;24.19;94.71;99350.81;7390544;19;20010;-57
2022/11/14 01:43:49;;;;;;;2.97;2.30;;;;;;;24.57;90.36;99351.19;7390036;19;20011;-57
2022/11/14 01:46:37;;;;;;;2.17;1.17;;;;;;;25.00;86.48;99344.84;7389492;19;20459;-57
2022/11/14 01:49:36;;;;;;;16.77;2.20;;;;;;;24.03;86.87;99348.06;7395679;19;20018;-57
2022/11/14 01:52:35;;;;;;;12.43;2.88;;;;;;;23.67;88.99;99341.31;7401132;19;20019;-57
2022/11/14 01:55:19;;;;;;;8.50;1.83;;;;;;;24.14;86.43;99334.72;7396225;19;20006;-57
2022/11/14 01:58:04;;;;;;;4.43;1.95;;;;;;;24.91;82.98;99330.50;7397095;19;20345;-57
2022/11/14 02:00:49;;;;;;;7.88;2.72;;;;;;;24.79;81.65;99330.28;7395297;19;20015;-57
2022/11/14 02:03:36;;;;;;;3.90;2.42;;;;;;;25.12;80.44;99328.00;7399987;19;20014;-57
2022/11/14 02:06:24;;;;;;;2.45;0.80;;;;;;;24.60;81.11;99319.44;7396475;19;20011;-57
2022/11/14 02:09:09;;;;;;;2.83;1.92;;;;;;;18.55;98.41;99328.22;7395226;19;20010;-57
2022/11/14 02:11:56;;;;;;;4.63;1.90;;;;;;;12.47;100.00;99331.53;7399127;19;20015;-56
2022/11/14 02:14:44;;;;;;;2.90;2.03;;;;;;;11.20;100.00;99328.56;7396268;19;20014;-56
2022/11/14 02:17:29;;;;;;;2.38;2.08;;;;;;;10.88;100.00;99326.22;7396192;19;20067;-57
2022/11/14 02:20:19;;;;;;;9.50;2.30;;;;;;;12.11;100.00;99319.16;7394319;19;20007;-56
2022/11/14 02:23:04;;;;;;;1.15;1.13;;;;;;;12.12;100.00;99315.09;7395621;19;20014;-57
2022/11/14 02:25:48;;;;;;;2.92;1.55;;;;;;;10.45;100.00;99305.72;7395968;19;20014;-57
2022/11/14 02:28:33;;;;;;;2.33;0.90;;;;;;;12.00;100.00;99312.72;7396309;19;20015;-57
2022/11/14 02:31:17;;;;;;;3.92;2.15;;;;;;;11.52;100.00;99309.81;7397626;19;20014;-57
2022/11/14 02:34:02;;;;;;;3.88;0.85;;;;;;;14.49;100.00;99304.63;7398491;19;20011;-56
2022/11/14 02:36:47;;;;;;;9.02;1.73;;;;;;;17.65;100.00;99310.63;7394792;19;20019;-56
2022/11/14 02:39:31;;;;;;;21.92;3.03;;;;;;;14.72;100.00;99308.88;7395154;19;20463;-57
2022/11/14 02:42:16;;;;;;;4.63;1.83;;;;;;;16.09;100.00;99307.59;7398375;19;20079;-56
2022/11/14 02:45:00;;;;;;;5.10;1.95;;;;;;;18.02;100.00;99306.91;7396627;19;20014;-56
2022/11/14 02:47:45;;;;;;;6.85;2.50;;;;;;;21.55;100.00;99299.25;7397823;19;20007;-56
2022/11/14 02:50:30;;;;;;;4.18;0.93;;;;;;;20.51;100.00;99289.09;7396363;19;20011;-56
2022/11/14 02:53:15;;;;;;;3.20;2.63;;;;;;;23.18;99.67;99287.97;7394627;19;20014;-56
2022/11/14 02:56:00;;;;;;;13.57;2.33;;;;;;;23.92;94.52;99280.25;7394680;19;20014;-57
2022/11/14 02:58:44;;;;;;;1.98;0.98;;;;;;;24.02;92.03;99275.41;7393920;19;20018;-56
2022/11/14 03:01:29;;;;;;;14.88;1.40;;;;;;;23.89;92.21;99269.28;7394339;19;20109;-57
2022/11/14 03:04:14;;;;;;;5.07;2.53;;;;;;;19.16;100.00;99278.91;7398401;19;20022;-57
2022/11/14 03:06:59;;;;;;;6.38;2.35;;;;;;;17.25;100.00;99275.16;7394293;19;20388;-57
2022/11/14 03:09:43;;;;;;;4.82;1.45;;;;;;;23.24;100.00;99248.72;7393563;19;20010;-56
2022/11/14 03:12:28;;;;;;;3.00;1.83;;;;;;;23.55;96.78;99249.28;7399258;19;20464;-57
2022/11/14 03:15:12;;;;;;;2.70;1.13;;;;;;;25.19;88.14;99253.00;7393609;19;20345;-56
2022/11/14 03:17:57;;;;;;;7.35;2.28;;;;;;;24.46;92.59;99252.03;7394295;19;20018;-56
2022/11/14 03:20:42;;;;;;;5.63;2.92;;;;;;;25.08;87.35;99245.03;7393382;19;20011;-57
2022/11/14 03:23:26;;;;;;;6.35;1.52;;;;;;;24.27;86.08;99240.50;7393619;19;20074;-56
2022/11/14 03:26:12;;;;;;;7.97;1.90;;;;;;;17.22;100.00;99251.66;7393483;19;20018;-56
2022/11/14 03:28:56;;;;;;;3.13;1.27;;;;;;;13.21;100.00;99253.72;7394974;19;20329;-57
2022/11/14 03:31:41;;;;;;;1.75;0.60;;;;;;;11.56;100.00;99257.41;7396633;19;20014;-56
2022/11/14 03:34:26;;;;;;;8.77;1.73;;;;;;;11.43;100.00;99257.06;7396687;19;20014;-56
2022/11/14 03:37:10;;;;;;;4.95;1.60;;;;;;;11.40;100.00;99261.59;7398237;19;20014;-56
2022/11/14 03:39:55;;;;;;;9.88;2.70;;;;;;;11.25;100.00;99254.63;7391850;19;20010;-57
2022/11/14 03:42:40;;;;;;;1.40;1.30;;;;;;;11.02;100.00;99259.22;7395552;19;20403;-56
2022/11/14 03:45:24;;;;;;;4.80;1.90;;;;;;;11.97;100.00;99253.13;7396120;19;20015;-56
2022/11/14 03:48:09;;;;;;;4.07;2.00;;;;;;;12.00;100.00;99245.75;7393835;19;20018;-56
2022/11/14 03:50:53;;;;;;;2.22;1.10;;;;;;;11.80;100.00;99251.50;7394212;19;20018;-56
2022/11/14 03:53:38;;;;;;;5.45;2.85;;;;;;;11.57;100.00;99247.75;7393378;19;20011;-56
2022/11/14 03:56:22;;;;;;;11.50;1.98;;;;;;;11.06;100.00;99250.66;7392948;19;20011;-56
2022/11/14 03:59:07;;;;;;;8.40;1.65;;;;;;;11.07;100.00;99249.41;7392467;19;20018;-57
2022/11/14 04:01:51;;;;;;;8.80;1.83;;;;;;;10.87;100.00;99250.22;7393584;19;20018;-57
2022/11/14 04:04:36;;;;;;;2.65;0.90;;;;;;;11.18;100.00;99249.50;7397794;19;20006;-56
2022/11/14 04:07:21;;;;;;;11.65;1.85;;;;;;;11.31;100.00;99247.06;7392966;19;20010;-56
2022/11/14 04:10:06;;;;;;;3.28;2.28;;;;;;;11.34;100.00;99246.84;7390484;19;20014;-57
2022/11/14 04:12:52;;;;;;;4.43;1.17;;;;;;;11.37;100.00;99247.88;7393392;19;20006;-56
2022/11/14 04:15:37;;;;;;;5.60;1.92;;;;;;;11.12;100.00;99251.47;7392465;19;20018;-56
2022/11/14 04:18:23;;;;;;;17.10;3.10;;;;;;;11.40;100.00;99247.66;7392454;19;20018;-56
2022/11/14 04:21:07;;;;;;;20.20;3.13;;;;;;;12.90;100.00;99245.53;7392467;19;20535;-56
2022/11/14 04:23:52;;;;;;;5.00;2.90;;;;;;;12.19;100.00;99247.63;7392017;19;20002;-56
2022/11/14 04:26:37;;;;;;;12.45;2.47;;;;;;;12.02;100.00;99243.22;7391117;19;20078;-56
2022/11/14 04:29:22;;;;;;;12.57;3.35;;;;;;;11.36;100.00;99249.13;7391546;19;20022;-56
2022/11/14 04:32:06;;;;;;;2.58;2.05;;;;;;;11.54;100.00;99229.25;7395349;19;20014;-57
2022/11/14 04:34:51;;;;;;;8.13;1.85;;;;;;;11.49;100.00;99229.97;7392060;19;20014;-56
2022/11/14 04:37:37;;;;;;;9.23;1.63;;;;;;;11.59;100.00;99216.59;7391558;19;20459;-56
2022/11/14 04:40:22;;;;;;;6.65;2.28;;;;;;;11.38;100.00;99213.94;7391466;19;20010;-56
2022/11/14 04:43:06;;;;;;;4.65;1.80;;;;;;;11.46;100.00;99207.91;7391634;19;20062;-57
2022/11/14 04:45:51;;;;;;;9.18;1.88;;;;;;;11.18;100.00;99213.25;7394832;19;20019;-57
2022/11/14 04:48:35;;;;;;;6.30;1.98;;;;;;;11.32;100.00;99220.72;7391836;19;20022;-56
2022/11/14 04:51:20;;;;;;;13.82;2.25;;;;;;;11.37;100.00;99209.59;7393691;19;20093;-56
2022/11/14 04:54:04;;;;;;;6.20;2.22;;;;;;;11.99;100.00;99200.38;7391229;19;20007;-56
2022/11/14 04:56:49;;;;;;;2.78;1.33;;;;;;;11.84;100.00;99210.94;7391840;19;20455;-57
2022/11/14 04:59:34;;;;;;;4.95;1.88;;;;;;;11.51;100.00;99213.50;7390705;19;20074;-57
2022/11/14 05:02:18;;;;;;;6.78;2.55;;;;;;;11.88;100.00;99211.47;7393146;19;20479;-56
2022/11/14 05:05:03;;;;;;;4.90;2.83;;;;;;;12.24;100.00;99209.06;7390869;19;20014;-56
2022/11/14 05:07:47;;;;;;;8.25;3.97;;;;;;;12.22;100.00;99203.22;7389449;19;20014;-56
2022/11/14 05:10:32;;;;;;;9.63;3.60;;;;;;;11.93;100.00;99205.13;7391487;19;20346;-57
2022/11/14 05:13:17;;;;;;;15.18;2.33;;;;;;;12.11;100.00;99218.66;7390842;19;20022;-57
2022/11/14 05:16:01;;;;;;;8.95;2.58;;;;;;;12.12;100.00;99225.03;7391016;19;20066;-57
2022/11/14 05:18:46;;;;;;;11.98;3.38;;;;;;;12.16;100.00;99225.53;7389284;19;20010;-57
2022/11/14 05:21:31;;;;;;;7.80;2.03;;;;;;;11.35;100.00;99219.72;7390557;19;20015;-56
2022/11/14 05:24:15;;;;;;;10.43;3.25;;;;;;;11.51;100.00;99216.28;7389112;19;20018;-56
2022/11/14 05:27:00;;;;;;;9.48;2.50;;;;;;;11.60;100.00;99218.13;7390845;19;20014;-56
2022/11/14 05:29:44;;;;;;;9.50;2.85;;;;;;;11.75;100.00;99219.50;7390345;19;20018;-56
2022/11/14 05:32:29;;;;;;;3.90;1.83;;;;;;;11.52;100.00;99217.06;7394666;19;20341;-56
2022/11/14 05:35:13;;;;;;;14.32;2.38;;;;;;;11.65;100.00;99226.50;7389668;19;20010;-56
2022/11/14 05:38:00;;;;;;;10.88;2.00;;;;;;;11.50;100.00;99228.69;7389458;19;20006;-56
2022/11/14 05:40:45;;;;;;;10.20;3.17;;;;;;;11.50;100.00;99225.91;7390545;19;20018;-56
2022/11/14 05:43:30;;;;;;;8.07;3.13;;;;;;;11.43;100.00;99229.19;7389699;19;20345;-56
2022/11/14 05:46:15;;;;;;;6.10;2.72;;;;;;;11.61;100.00;99220.41;7394412;19;20014;-56
2022/11/14 05:49:00;;;;;;;5.75;2.85;;;;;;;11.59;100.00;99211.78;7389810;19;20074;-56
2022/11/14 05:51:44;;;;;;;2.45;1.20;;;;;;;11.15;100.00;99222.63;7392584;19;20010;-56
2022/11/14 05:54:29;;;;;;;2.92;1.77;;;;;;;11.13;100.00;99214.00;7389320;19;20018;-57
2022/11/14 05:57:13;;;;;;;2.55;1.40;;;;;;;11.33;100.00;99211.09;7388312;19;20027;-57
2022/11/14 05:59:58;;;;;;;11.85;3.35;;;;;;;11.44;100.00;99219.53;7389947;19;20010;-56
2022/11/14 06:02:45;;;;;;;8.90;1.85;;;;;;;11.20;100.00;99207.94;7393523;19;20023;-56
2022/11/14 06:05:29;;;;;;;7.40;2.40;;;;;;;11.78;100.00;99189.88;7387397;19;20018;-56
2022/11/14 06:08:15;;;;;;;6.32;2.40;;;;;;;11.57;100.00;99188.44;7389438;19;20014;-57
2022/11/14 06:11:05;;;;;;;8.45;2.17;;;;;;;11.44;100.00;99194.44;7390157;19;20019;-57
2022/11/14 06:13:50;;;;;;;6.50;2.13;;;;;;;11.57;100.00;99183.63;7389360;19;20074;-57
2022/11/14 06:16:34;;;;;;;18.17;2.20;;;;;;;10.74;100.00;99179.47;7387873;19;20333;-56
2022/11/14 06:19:20;;;;;;;5.30;1.88;;;;;;;10.90;100.00;99189.97;7388844;19;20015;-56
2022/11/14 06:22:05;;;;;;;24.02;3.80;;;;;;;10.75;100.00;99190.13;7392441;19;20011;-56
2022/11/14 06:24:50;;;;;;;1.67;1.02;;;;;;;10.69;100.00;99200.44;7388741;19;20010;-56
2022/11/14 06:27:34;;;;;;;5.20;2.45;;;;;;;10.16;100.00;99200.91;7388281;19;20002;-56
2022/11/14 06:30:19;;;;;;;15.60;2.55;;;;;;;10.24;100.00;99195.69;7389410;19;20018;-56
2022/11/14 06:33:03;;;;;;;5.47;1.65;;;;;;;10.61;100.00;99200.09;7390166;19;20014;-56
2022/11/14 06:35:48;;;;;;;13.40;2.38;;;;;;;10.84;100.00;99192.72;7394704;19;20021;-56
2022/11/14 06:38:35;;;;;;;11.15;2.45;;;;;;;10.97;100.00;99173.59;7394626;19;20011;-56
2022/11/14 06:41:21;;;;;;;7.53;2.03;;;;;;;11.20;100.00;99163.38;7396041;19;20096;-56
2022/11/14 06:44:07;;;;;;;6.30;2.03;;;;;;;10.99;100.00;99164.75;7396012;19;20010;-56
2022/11/14 06:46:52;;;;;;;2.55;1.35;;;;;;;10.81;100.00;99165.09;7395499;19;20010;-56
2022/11/14 06:49:37;;;;;;;1.45;1.10;;;;;;;10.79;100.00;99150.91;7395132;19;20455;-56
2022/11/14 06:52:21;;;;;;;6.15;1.52;;;;;;;11.00;100.00;99153.09;7398770;19;20329;-56
2022/11/14 06:55:06;;;;;;;7.30;1.90;;;;;;;10.75;100.00;99167.06;7394483;19;20006;-57
2022/11/14 06:57:54;;;;;;;5.05;1.42;;;;;;;10.86;100.00;99175.53;7394933;19;20011;-56
2022/11/14 07:00:39;;;;;;;5.80;3.25;;;;;;;11.04;100.00;99161.25;7394072;19;20034;-56
2022/11/14 07:03:24;;;;;;;11.25;1.73;;;;;;;11.08;100.00;99168.13;7398106;19;20015;-56
2022/11/14 07:06:11;;;;;;;10.30;1.92;;;;;;;10.69;100.00;99175.38;7394692;19;20500;-56
2022/11/14 07:08:56;;;;;;;15.35;2.95;;;;;;;11.07;100.00;99171.38;7393537;19;20018;-56
2022/11/14 07:11:41;;;;;;;6.97;1.58;;;;;;;10.88;100.00;99173.00;7395285;19;20011;-56
2022/11/14 07:14:27;;;;;;;4.63;1.67;;;;;;;11.05;100.00;99179.47;7393970;19;20019;-56
2022/11/14 07:17:12;;;;;;;15.70;1.77;;;;;;;11.08;100.00;99184.06;7394730;19;20019;-56
2022/11/14 07:19:56;;;;;;;7.07;2.20;;;;;;;10.70;100.00;99193.59;7394330;19;20018;-56
2022/11/14 07:22:41;;;;;;;10.45;1.73;;;;;;;10.88;100.00;99192.50;7397982;19;20011;-56
2022/11/14 07:25:25;;;;;;;4.20;1.58;;;;;;;10.77;100.00;99186.84;7397834;19;20007;-57
2022/11/14 07:28:10;;;;;;;3.13;1.35;;;;;;;10.97;100.00;99190.31;7396428;19;20094;-56
2022/11/14 07:30:54;;;;;;;4.10;1.85;;;;;;;11.44;100.00;99177.72;7395029;19;20018;-57
2022/11/14 07:33:40;;;;;;;5.10;1.30;;;;;;;11.44;100.00;99178.50;7396406;19;20014;-56
2022/11/14 07:36:24;;;;;;;6.75;1.95;;;;;;;11.19;100.00;99170.97;7394007;19;20024;-56
2022/11/14 07:39:09;;;;;;;8.25;1.65;;;;;;;10.85;100.00;99176.78;7393489;19;20010;-56
2022/11/14 07:41:54;;;;;;;10.10;1.42;;;;;;;11.22;100.00;99175.53;7394804;19;20011;-56
2022/11/14 07:44:39;;;;;;;5.43;2.28;;;;;;;11.22;100.00;99166.41;7395552;19;20641;-57
2022/11/14 07:47:23;;;;;;;6.20;1.75;;;;;;;10.97;100.00;99172.81;7391687;19;20015;-56
2022/11/14 07:50:08;;;;;;;5.97;1.13;;;;;;;11.12;100.00;99185.38;7394339;19;20011;-57
2022/11/14 07:52:54;;;;;;;6.88;0.60;;;;;;;11.26;100.00;99178.13;7393268;19;20010;-57
2022/11/14 07:55:40;;;;;;;3.03;1.02;;;;;;;11.31;100.00;99177.38;7391997;19;20010;-57
2022/11/14 07:58:24;;;;;;;3.40;1.40;;;;;;;11.22;100.00;99178.34;7393314;19;20015;-57
2022/11/14 08:01:11;;;;;;;5.82;1.38;;;;;;;11.06;100.00;99178.22;7393043;19;20071;-57
2022/11/14 08:03:56;;;;;;;4.28;1.65;;;;;;;11.40;100.00;99172.38;7394963;19;20031;-57
2022/11/14 08:06:41;;;;;;;2.80;0.95;;;;;;;11.29;100.00;99152.78;7391149;19;20010;-57
2022/11/14 08:09:25;;;;;;;8.93;2.67;;;;;;;11.36;100.00;99154.34;7392884;19;20002;-58
2022/11/14 08:12:10;;;;;;;9.88;1.48;;;;;;;11.30;100.00;99139.63;7395711;19;20014;-57
2022/11/14 08:14:54;;;;;;;4.07;1.38;;;;;;;11.16;100.00;99135.75;7391087;19;20014;-57
2022/11/14 08:17:39;;;;;;;9.55;1.80;;;;;;;11.48;100.00;99147.56;7392325;19;20098;-57
2022/11/14 08:20:28;;;;;;;2.63;0.77;;;;;;;11.52;100.00;99139.72;7392009;19;20015;-57
2022/11/14 08:23:13;;;;;;;7.20;1.80;;;;;;;11.38;100.00;99135.88;7390828;19;20014;-57
2022/11/14 08:25:58;;;;;;;10.40;1.67;;;;;;;11.42;100.00;99135.63;7390416;19;20023;-57
2022/11/14 08:28:43;;;;;;;6.40;2.78;;;;;;;11.35;100.00;99138.88;7391442;19;20015;-57
2022/11/14 08:31:27;;;;;;;7.65;0.95;;;;;;;11.44;100.00;99133.09;7394344;19;20010;-57
2022/11/14 08:34:12;;;;;;;1.75;1.40;;;;;;;11.38;100.00;99135.09;7396027;19;20010;-57
2022/11/14 08:36:57;;;;;;;1.40;0.68;;;;;;;11.36;100.00;99137.63;7391370;19;20018;-57
2022/11/14 08:39:42;;;;;;;9.07;1.35;;;;;;;11.32;100.00;99142.69;7391333;19;20010;-57
2022/11/14 08:42:27;;;;;;;4.22;1.58;;;;;;;11.22;100.00;99138.53;7396716;19;20011;-57
2022/11/14 08:45:12;;;;;;;2.60;1.45;;;;;;;11.56;100.00;99134.72;7394444;19;20007;-57
2022/11/14 08:47:56;;;;;;;2.28;1.27;;;;;;;11.60;100.00;99128.88;7390299;19;20014;-57
2022/11/14 08:50:41;;;;;;;3.80;1.15;;;;;;;11.62;100.00;99129.91;7392154;19;20014;-57
2022/11/14 08:53:26;;;;;;;3.83;1.80;;;;;;;11.54;100.00;99126.09;7391172;19;20015;-57
2022/11/14 08:56:11;;;;;;;8.02;2.33;;;;;;;11.36;100.00;99132.06;7391124;19;20015;-57
2022/11/14 08:58:55;;;;;;;9.27;1.33;;;;;;;11.45;100.00;99129.06;7390334;19;20447;-57
2022/11/14 09:01:41;;;;;;;3.90;1.25;;;;;;;11.21;100.00;99126.66;7391954;19;20014;-57
2022/11/14 09:04:26;;;;;;;4.10;0.75;;;;;;;11.45;100.00;99129.06;7395250;19;20468;-57
2022/11/14 09:07:11;;;;;;;7.57;1.50;;;;;;;11.78;100.00;99122.91;7388816;19;20460;-57
2022/11/14 09:09:55;;;;;;;4.30;1.83;;;;;;;11.65;100.00;99114.22;7390580;19;20018;-57
2022/11/14 09:12:40;;;;;;;3.78;1.48;;;;;;;11.78;100.00;99106.91;7395187;19;20010;-57
2022/11/14 09:15:27;;;;;;;7.47;1.42;;;;;;;11.82;100.00;99101.88;7390403;19;20015;-57
2022/11/14 09:18:11;;;;;;;6.43;1.85;;;;;;;11.47;100.00;99109.03;7389374;19;20010;-57
2022/11/14 09:21:00;;;;;;;2.22;0.95;;;;;;;12.01;100.00;99107.75;7389101;19;20014;-57
2022/11/14 09:23:46;;;;;;;9.68;1.50;;;;;;;11.78;100.00;99104.13;7388204;19;20011;-57
2022/11/14 09:26:31;;;;;;;6.03;1.00;;;;;;;12.13;100.00;99098.91;7389065;19;20006;-57
2022/11/14 09:29:17;;;;;;;2.22;0.68;;;;;;;11.67;100.00;99084.59;7388728;19;20006;-57
2022/11/14 09:32:02;;;;;;;3.42;0.43;;;;;;;11.82;100.00;99099.09;7392977;19;20015;-57
2022/11/14 09:34:47;;;;;;;0.17;0.10;;;;;;;11.43;100.00;99103.72;7389637;19;20022;-57
2022/11/14 09:37:31;;;;;;;4.18;1.10;;;;;;;11.42;100.00;99104.97;7389843;19;20022;-57
2022/11/14 09:40:16;;;;;;;2.75;0.95;;;;;;;11.41;100.00;99106.25;7389167;19;20106;-57
2022/11/14 09:43:16;;;;;;;0.47;0.45;;;;;;;11.23;100.00;99103.84;7389415;19;20011;-57
2022/11/14 09:46:02;;;;;;;3.30;1.02;;;;;;;11.27;100.00;99101.59;7394404;19;20014;-57
2022/11/14 09:48:47;;;;;;;1.55;0.85;;;;;;;11.37;100.00;99100.88;7390026;19;20015;-58
2022/11/14 09:51:41;;;;;;;7.32;1.23;;;;;;;11.27;100.00;99098.81;7392187;19;20010;-57
2022/11/14 09:54:34;;;;;;;1.83;1.00;;;;;;;11.43;100.00;99100.94;7389467;19;20110;-57
2022/11/14 09:57:20;;;;;;;2.35;0.70;;;;;;;11.41;100.00;99095.09;7389513;19;20038;-58
2022/11/14 10:00:19;;;;;;;5.43;1.15;;;;;;;11.68;100.00;99102.84;7387680;19;20010;-57
2022/11/14 10:03:41;;;;;;;3.90;1.00;;;;;;;11.65;100.00;99089.09;7391243;19;20309;-57
2022/11/14 10:06:29;;;;;;;5.47;0.98;;;;;;;11.97;100.00;99074.53;7388463;19;20014;-57
2022/11/14 10:09:20;;;;;;;8.95;1.13;;;;;;;11.66;100.00;99074.66;7392492;19;20014;-57
2022/11/14 10:12:35;;;;;;;0.28;0.20;;;;;;;12.25;100.00;99077.38;7399332;19;20010;-57
2022/11/14 10:15:49;;;;;;;2.53;0.90;;;;;;;12.07;100.00;99080.63;7394841;19;20830;-58
2022/11/14 10:18:37;;;;;;;0.60;0.38;;;;;;;11.31;100.00;99085.41;7392160;19;20094;-58
2022/11/14 10:21:40;;;;;;;3.00;1.08;;;;;;;11.26;100.00;99084.09;7396042;19;20018;-58
2022/11/14 10:24:37;;;;;;;3.38;1.08;;;;;;;11.46;100.00;99074.81;7395347;19;20014;-58
2022/11/14 10:27:28;;;;;;;1.25;0.70;;;;;;;11.96;100.00;99073.00;7395550;19;20397;-58
2022/11/14 10:30:17;;;;;;;1.75;0.55;;;;;;;11.48;100.00;99066.72;7396262;19;20015;-57
2022/11/14 10:33:09;;;;;;;2.42;0.60;;;;;;;12.10;100.00;99054.50;7398080;19;20467;-58
2022/11/14 10:36:14;;;;;;;2.47;1.00;;;;;;;12.59;100.00;99041.81;7394943;19;20011;-58
2022/11/14 10:39:31;;;;;;;8.40;1.45;;;;;;;13.07;100.00;99033.91;7396153;19;20010;-57
2022/11/14 10:42:27;;;;;;;4.40;0.95;;;;;;;14.32;100.00;99037.84;7399329;19;20015;-58
2022/11/14 10:45:12;;;;;;;5.05;1.40;;;;;;;12.97;100.00;99057.78;7398701;19;20463;-58
2022/11/14 10:48:02;;;;;;;6.30;0.90;;;;;;;12.57;100.00;99047.16;7395200;19;20090;-58
2022/11/14 10:50:58;;;;;;;2.28;1.10;;;;;;;13.37;100.00;99051.59;7395725;19;20007;-57
2022/11/14 10:53:59;;;;;;;4.03;1.15;;;;;;;12.28;100.00;99056.06;7394893;19;20011;-58
2022/11/14 10:56:49;;;;;;;4.93;0.95;;;;;;;15.71;100.00;99040.75;7394311;19;20611;-58
2022/11/14 10:59:35;;;;;;;3.30;1.27;;;;;;;13.19;100.00;99035.38;7395396;19;20333;-58
2022/11/14 11:02:20;;;;;;;1.15;0.60;;;;;;;13.22;100.00;99023.19;7398804;19;20018;-58
2022/11/14 11:05:14;;;;;;;1.27;0.60;;;;;;;14.99;100.00;99021.94;7394679;19;20030;-58
2022/11/14 11:14:16;;;;;;;6.35;0.95;;;;;;;13.44;100.00;99017.50;7392897;19;20074;-58
2022/11/14 11:17:27;;;;;;;2.13;0.75;;;;;;;12.81;100.00;99050.97;7393942;19;20010;-58
2022/11/14 11:20:32;;;;;;;1.70;0.40;;;;;;;13.99;100.00;99049.28;7390917;19;20475;-58
2022/11/14 11:23:27;;;;;;;5.30;0.40;;;;;;;14.42;100.00;99045.41;7393732;19;20010;-58
2022/11/14 11:26:20;;;;;;;2.38;0.63;;;;;;;16.13;100.00;99041.97;7393483;19;20011;-58
2022/11/14 11:29:08;;;;;;;2.80;0.63;;;;;;;17.91;100.00;99031.03;7392860;19;20014;-58
2022/11/14 11:31:55;;;;;;;10.93;1.20;;;;;;;18.07;100.00;99027.84;7396739;19;20011;-58
2022/11/14 11:34:39;;;;;;;2.88;0.47;;;;;;;19.12;100.00;99035.00;7397570;19;20011;-59
2022/11/14 11:37:32;;;;;;;5.25;0.65;;;;;;;18.53;100.00;99025.50;7393346;19;20046;-58
2022/11/14 11:40:24;;;;;;;9.98;0.80;;;;;;;15.96;100.00;99033.00;7392923;19;20014;-58
2022/11/14 11:43:15;;;;;;;;;;;;;;;18.66;100.00;99033.88;7394973;19;20018;-58
2022/11/14 11:46:05;;;;;;;2.20;0.57;;;;;;;19.70;100.00;99037.22;7398170;19;19943;-58
2022/11/14 11:48:56;;;;;;;2.78;0.35;;;;;;;19.66;100.00;99035.50;7392918;19;20014;-58
2022/11/14 11:51:44;;;;;;;1.73;0.50;;;;;;;20.00;100.00;99031.69;7395041;19;20014;-58
2022/11/14 11:54:52;;;;;;;1.58;0.52;;;;;;;19.59;100.00;99016.47;7392864;19;20010;-58
2022/11/14 11:57:47;;;;;;;5.47;0.90;;;;;;;20.10;100.00;99012.84;7393505;19;20015;-58
2022/11/14 12:00:32;;;;;;;1.38;0.40;;;;;;;19.72;100.00;99009.16;7392722;19;20477;-58
2022/11/14 12:03:17;;;;;;;1.75;0.43;;;;;;;20.07;100.00;99006.28;7394920;19;20018;-58
2022/11/14 12:06:26;;;;;;;2.40;1.08;;;;;;;20.68;100.00;99004.28;7392588;19;20340;-58
2022/11/14 12:09:25;;;;;;;0.57;0.57;;;;;;;21.02;100.00;99001.06;7392387;19;20010;-58
2022/11/14 12:12:14;;;;;;;3.95;0.65;;;;;;;20.85;100.00;98989.59;7395693;19;20014;-58
2022/11/14 12:15:21;;;;;;;0.50;0.50;;;;;;;20.71;100.00;98989.00;7392488;19;20019;-58
2022/11/14 12:18:21;;;;;;;2.47;0.82;;;;;;;20.97;100.00;98985.78;7391385;19;20014;-58
2022/11/14 12:21:14;;;;;;;0.73;0.38;;;;;;;20.88;100.00;98991.25;7392042;19;20094;-58
2022/11/14 12:24:22;;;;;;;1.95;0.70;;;;;;;20.84;100.00;98982.41;7392334;19;20007;-59
2022/11/14 12:27:28;;;;;;;3.03;1.10;;;;;;;20.47;100.00;98971.84;7392188;19;20015;-58
2022/11/14 12:30:22;;;;;;;4.95;0.98;;;;;;;20.27;100.00;98976.38;7392097;19;20074;-57
2022/11/14 12:33:11;;;;;;;2.88;0.68;;;;;;;18.83;100.00;98961.63;7393623;19;20007;-57
2022/11/14 12:36:00;;;;;;;1.50;0.68;;;;;;;17.70;100.00;98962.63;7391436;19;20352;-58
2022/11/14 12:38:52;;;;;;;4.53;1.20;;;;;;;16.76;100.00;98958.91;7392047;19;20341;-58
2022/11/14 12:41:39;;;;;;;4.75;1.38;;;;;;;16.85;100.00;98950.06;7393412;19;20070;-58
2022/11/14 12:44:27;;;;;;;5.30;0.80;;;;;;;16.88;100.00;98941.28;7393497;19;20023;-58
2022/11/14 12:47:14;;;;;;;3.97;0.43;;;;;;;16.74;100.00;98944.66;7390835;19;20022;-58
2022/11/14 12:50:00;;;;;;;4.82;1.33;;;;;;;17.04;100.00;98931.00;7390136;19;20010;-58
2022/11/14 12:52:51;;;;;;;3.10;1.58;;;;;;;16.74;100.00;98919.34;7396263;19;20019;-58
2022/11/14 12:55:42;;;;;;;4.72;0.93;;;;;;;17.69;100.00;98916.81;7391876;19;20015;-58
2022/11/14 12:58:30;;;;;;;2.55;0.93;;;;;;;17.40;100.00;98913.09;7391174;19;20047;-58
2022/11/14 13:01:40;;;;;;;2.47;0.35;;;;;;;18.03;100.00;98913.94;7390594;19;20432;-58
2022/11/14 13:04:37;;;;;;;6.47;1.02;;;;;;;17.92;100.00;98905.78;7394695;19;20364;-58
2022/11/14 13:07:35;;;;;;;3.55;1.05;;;;;;;18.72;100.00;98907.56;7390363;19;20328;-58